sensor_id;sensor_type;location;lat;lon;timestamp;pressure;altitude;pressure_sealevel;temperature;humidity
77110;BME280;66062;52.464;16.922;2023-06-24T00:01:30;101002.13;;;17.48;89.15
77110;BME280;66062;52.464;16.922;2023-06-24T00:03:57;101005.63;;;17.57;89.09
77110;BME280;66062;52.464;16.922;2023-06-24T00:06:23;101008.34;;;17.49;89.14
77110;BME280;66062;52.464;16.922;2023-06-24T00:08:51;100995.88;;;17.48;89.13
77110;BME280;66062;52.464;16.922;2023-06-24T00:11:18;101005.66;;;17.49;88.87
77110;BME280;66062;52.464;16.922;2023-06-24T00:13:44;101009.56;;;17.46;88.17
77110;BME280;66062;52.464;16.922;2023-06-24T00:16:10;101007.19;;;17.51;87.76
77110;BME280;66062;52.464;16.922;2023-06-24T00:18:36;101006.97;;;17.53;87.78
77110;BME280;66062;52.464;16.922;2023-06-24T00:21:03;101002.97;;;17.49;87.64
77110;BME280;66062;52.464;16.922;2023-06-24T00:23:31;101007.16;;;17.60;87.75
77110;BME280;66062;52.464;16.922;2023-06-24T00:26:01;101008.34;;;17.49;87.99
77110;BME280;66062;52.464;16.922;2023-06-24T00:28:27;101006.88;;;17.46;88.11
77110;BME280;66062;52.464;16.922;2023-06-24T00:30:52;101013.13;;;17.39;88.33
77110;BME280;66062;52.464;16.922;2023-06-24T00:33:18;101013.13;;;17.39;88.98
77110;BME280;66062;52.464;16.922;2023-06-24T00:35:47;101015.81;;;17.47;88.17
77110;BME280;66062;52.464;16.922;2023-06-24T00:38:13;101012.06;;;17.48;87.46
77110;BME280;66062;52.464;16.922;2023-06-24T00:40:38;101022.00;;;17.47;87.67
77110;BME280;66062;52.464;16.922;2023-06-24T00:43:05;101018.31;;;17.48;87.20
77110;BME280;66062;52.464;16.922;2023-06-24T00:45:31;101018.50;;;17.47;86.76
77110;BME280;66062;52.464;16.922;2023-06-24T00:47:57;101023.06;;;17.46;86.85
77110;BME280;66062;52.464;16.922;2023-06-24T00:50:26;101024.91;;;17.46;86.28
77110;BME280;66062;52.464;16.922;2023-06-24T00:52:51;101026.94;;;17.44;86.30
77110;BME280;66062;52.464;16.922;2023-06-24T00:55:18;101027.78;;;17.44;86.75
77110;BME280;66062;52.464;16.922;2023-06-24T00:57:47;101037.06;;;17.42;86.74
77110;BME280;66062;52.464;16.922;2023-06-24T01:00:20;101032.16;;;17.45;84.52
77110;BME280;66062;52.464;16.922;2023-06-24T01:02:48;101034.34;;;17.50;82.81
77110;BME280;66062;52.464;16.922;2023-06-24T01:05:14;101039.69;;;17.58;82.30
77110;BME280;66062;52.464;16.922;2023-06-24T01:07:41;101039.38;;;17.61;82.89
77110;BME280;66062;52.464;16.922;2023-06-24T01:10:08;101040.72;;;17.57;82.93
77110;BME280;66062;52.464;16.922;2023-06-24T01:12:35;101036.84;;;17.60;82.00
77110;BME280;66062;52.464;16.922;2023-06-24T01:15:02;101036.00;;;17.59;81.33
77110;BME280;66062;52.464;16.922;2023-06-24T01:17:41;101035.66;;;17.54;80.66
77110;BME280;66062;52.464;16.922;2023-06-24T01:20:08;101036.34;;;17.64;79.62
77110;BME280;66062;52.464;16.922;2023-06-24T01:23:31;101041.41;;;17.51;80.48
77110;BME280;66062;52.464;16.922;2023-06-24T01:31:35;101053.19;;;17.58;81.03
77110;BME280;66062;52.464;16.922;2023-06-24T01:37:21;101053.06;;;17.51;81.51
77110;BME280;66062;52.464;16.922;2023-06-24T01:39:57;101058.63;;;17.50;81.38
77110;BME280;66062;52.464;16.922;2023-06-24T01:42:31;101052.88;;;17.53;81.84
77110;BME280;66062;52.464;16.922;2023-06-24T01:45:03;101053.59;;;17.47;81.21
77110;BME280;66062;52.464;16.922;2023-06-24T01:47:33;101057.25;;;17.54;80.86
77110;BME280;66062;52.464;16.922;2023-06-24T01:50:01;101051.00;;;17.53;81.00
77110;BME280;66062;52.464;16.922;2023-06-24T01:52:29;101049.16;;;17.54;81.07
77110;BME280;66062;52.464;16.922;2023-06-24T01:54:58;101059.00;;;17.47;81.30
77110;BME280;66062;52.464;16.922;2023-06-24T01:57:25;101060.97;;;17.53;81.25
77110;BME280;66062;52.464;16.922;2023-06-24T01:59:53;101058.59;;;17.58;81.29
77110;BME280;66062;52.464;16.922;2023-06-24T02:02:20;101051.22;;;17.52;81.58
77110;BME280;66062;52.464;16.922;2023-06-24T02:04:48;101052.53;;;17.48;81.75
77110;BME280;66062;52.464;16.922;2023-06-24T02:07:15;101057.63;;;17.51;81.97
77110;BME280;66062;52.464;16.922;2023-06-24T02:09:43;101055.78;;;17.43;82.44
77110;BME280;66062;52.464;16.922;2023-06-24T02:12:09;101063.19;;;17.49;82.19
77110;BME280;66062;52.464;16.922;2023-06-24T02:14:35;101064.03;;;17.50;82.82
77110;BME280;66062;52.464;16.922;2023-06-24T02:17:03;101063.69;;;17.45;82.67
77110;BME280;66062;52.464;16.922;2023-06-24T02:19:30;101068.41;;;17.51;82.65
77110;BME280;66062;52.464;16.922;2023-06-24T02:21:57;101074.97;;;17.48;82.83
77110;BME280;66062;52.464;16.922;2023-06-24T02:24:25;101072.13;;;17.50;83.10
77110;BME280;66062;52.464;16.922;2023-06-24T02:26:53;101072.97;;;17.50;83.26
77110;BME280;66062;52.464;16.922;2023-06-24T02:29:19;101076.50;;;17.51;83.64
77110;BME280;66062;52.464;16.922;2023-06-24T02:31:46;101082.44;;;17.46;83.87
77110;BME280;66062;52.464;16.922;2023-06-24T02:34:12;101079.72;;;17.46;85.14
77110;BME280;66062;52.464;16.922;2023-06-24T02:36:37;101073.81;;;17.43;85.06
77110;BME280;66062;52.464;16.922;2023-06-24T02:39:03;101072.97;;;17.42;84.87
77110;BME280;66062;52.464;16.922;2023-06-24T02:41:29;101073.50;;;17.38;85.22
77110;BME280;66062;52.464;16.922;2023-06-24T02:43:54;101075.69;;;17.34;85.63
77110;BME280;66062;52.464;16.922;2023-06-24T02:46:20;101074.13;;;17.48;85.57
77110;BME280;66062;52.464;16.922;2023-06-24T02:48:46;101070.09;;;17.44;86.28
77110;BME280;66062;52.464;16.922;2023-06-24T02:51:13;101065.22;;;17.39;86.49
77110;BME280;66062;52.464;16.922;2023-06-24T02:53:39;101071.00;;;17.36;86.83
77110;BME280;66062;52.464;16.922;2023-06-24T02:56:06;101077.56;;;17.34;87.10
77110;BME280;66062;52.464;16.922;2023-06-24T02:58:33;101087.34;;;17.35;87.40
77110;BME280;66062;52.464;16.922;2023-06-24T03:01:01;101095.28;;;17.28;88.44
77110;BME280;66062;52.464;16.922;2023-06-24T03:03:28;101099.50;;;17.23;88.81
77110;BME280;66062;52.464;16.922;2023-06-24T03:05:54;101101.19;;;17.24;89.17
77110;BME280;66062;52.464;16.922;2023-06-24T03:08:23;101108.28;;;17.25;88.77
77110;BME280;66062;52.464;16.922;2023-06-24T03:10:55;101114.69;;;17.32;88.97
77110;BME280;66062;52.464;16.922;2023-06-24T03:13:21;101122.09;;;17.30;89.13
77110;BME280;66062;52.464;16.922;2023-06-24T03:15:46;101120.56;;;17.27;88.76
77110;BME280;66062;52.464;16.922;2023-06-24T03:18:12;101126.63;;;17.29;89.30
77110;BME280;66062;52.464;16.922;2023-06-24T03:20:37;101125.78;;;17.29;89.01
77110;BME280;66062;52.464;16.922;2023-06-24T03:23:06;101131.69;;;17.32;89.38
77110;BME280;66062;52.464;16.922;2023-06-24T03:25:32;101125.47;;;17.32;89.06
77110;BME280;66062;52.464;16.922;2023-06-24T03:27:58;101144.84;;;17.27;88.93
77110;BME280;66062;52.464;16.922;2023-06-24T03:30:26;101136.06;;;17.33;89.27
77110;BME280;66062;52.464;16.922;2023-06-24T03:32:57;101138.09;;;17.39;88.96
77110;BME280;66062;52.464;16.922;2023-06-24T03:35:23;101134.72;;;17.37;88.75
77110;BME280;66062;52.464;16.922;2023-06-24T03:37:49;101130.16;;;17.38;89.20
77110;BME280;66062;52.464;16.922;2023-06-24T03:40:14;101131.84;;;17.39;88.89
77110;BME280;66062;52.464;16.922;2023-06-24T03:42:40;101133.91;;;17.37;89.32
77110;BME280;66062;52.464;16.922;2023-06-24T03:45:05;101135.75;;;17.36;89.74
77110;BME280;66062;52.464;16.922;2023-06-24T03:47:31;101125.44;;;17.40;89.64
77110;BME280;66062;52.464;16.922;2023-06-24T03:49:56;101132.00;;;17.45;89.58
77110;BME280;66062;52.464;16.922;2023-06-24T03:52:22;101134.88;;;17.44;89.99
77110;BME280;66062;52.464;16.922;2023-06-24T03:54:48;101124.94;;;17.36;89.81
77110;BME280;66062;52.464;16.922;2023-06-24T03:57:13;101142.66;;;17.39;90.18
77110;BME280;66062;52.464;16.922;2023-06-24T03:59:38;101136.41;;;17.38;90.14
77110;BME280;66062;52.464;16.922;2023-06-24T04:02:05;101141.28;;;17.43;89.79
77110;BME280;66062;52.464;16.922;2023-06-24T04:04:34;101142.47;;;17.48;90.34
77110;BME280;66062;52.464;16.922;2023-06-24T04:07:00;101140.13;;;17.45;89.55
77110;BME280;66062;52.464;16.922;2023-06-24T04:09:25;101140.97;;;17.46;89.90
77110;BME280;66062;52.464;16.922;2023-06-24T04:11:50;101142.81;;;17.45;88.68
77110;BME280;66062;52.464;16.922;2023-06-24T04:14:16;101145.47;;;17.53;89.70
77110;BME280;66062;52.464;16.922;2023-06-24T04:16:41;101139.56;;;17.58;89.05
77110;BME280;66062;52.464;16.922;2023-06-24T04:19:07;101142.63;;;17.55;89.09
77110;BME280;66062;52.464;16.922;2023-06-24T04:21:32;101148.22;;;17.62;88.66
77110;BME280;66062;52.464;16.922;2023-06-24T04:23:57;101158.50;;;17.66;87.82
77110;BME280;66062;52.464;16.922;2023-06-24T04:26:23;101152.41;;;17.64;88.46
77110;BME280;66062;52.464;16.922;2023-06-24T04:28:48;101145.16;;;17.57;88.95
77110;BME280;66062;52.464;16.922;2023-06-24T04:31:13;101155.97;;;17.65;89.28
77110;BME280;66062;52.464;16.922;2023-06-24T04:33:39;101150.56;;;17.65;89.84
77110;BME280;66062;52.464;16.922;2023-06-24T04:36:04;101152.25;;;17.66;89.69
77110;BME280;66062;52.464;16.922;2023-06-24T04:38:30;101162.84;;;17.75;90.61
77110;BME280;66062;52.464;16.922;2023-06-24T04:40:55;101154.75;;;17.75;89.88
77110;BME280;66062;52.464;16.922;2023-06-24T04:43:24;101165.19;;;17.78;88.92
77110;BME280;66062;52.464;16.922;2023-06-24T04:45:50;101163.28;;;17.95;89.24
77110;BME280;66062;52.464;16.922;2023-06-24T04:48:15;101156.41;;;17.92;89.13
77110;BME280;66062;52.464;16.922;2023-06-24T04:50:41;101162.44;;;17.94;86.94
77110;BME280;66062;52.464;16.922;2023-06-24T04:53:06;101172.09;;;17.89;87.19
77110;BME280;66062;52.464;16.922;2023-06-24T04:55:32;101159.75;;;17.94;87.54
77110;BME280;66062;52.464;16.922;2023-06-24T04:57:57;101162.06;;;18.06;86.79
77110;BME280;66062;52.464;16.922;2023-06-24T05:00:22;101166.28;;;18.08;86.98
77110;BME280;66062;52.464;16.922;2023-06-24T05:02:49;101163.19;;;18.19;86.07
77110;BME280;66062;52.464;16.922;2023-06-24T05:05:14;101159.31;;;18.14;86.50
77110;BME280;66062;52.464;16.922;2023-06-24T05:07:40;101163.19;;;18.19;85.87
77110;BME280;66062;52.464;16.922;2023-06-24T05:10:05;101166.41;;;18.23;85.14
77110;BME280;66062;52.464;16.922;2023-06-24T05:12:31;101160.25;;;18.37;85.17
77110;BME280;66062;52.464;16.922;2023-06-24T05:14:56;101163.25;;;18.42;83.80
77110;BME280;66062;52.464;16.922;2023-06-24T05:17:22;101160.50;;;18.50;83.22
77110;BME280;66062;52.464;16.922;2023-06-24T05:19:47;101170.28;;;18.59;83.28
77110;BME280;66062;52.464;16.922;2023-06-24T05:22:12;101158.44;;;18.60;83.22
77110;BME280;66062;52.464;16.922;2023-06-24T05:24:38;101167.06;;;18.87;82.78
77110;BME280;66062;52.464;16.922;2023-06-24T05:27:04;101166.38;;;18.85;82.27
77110;BME280;66062;52.464;16.922;2023-06-24T05:29:31;101166.81;;;18.96;81.71
77110;BME280;66062;52.464;16.922;2023-06-24T05:31:57;101165.13;;;19.18;80.18
77110;BME280;66062;52.464;16.922;2023-06-24T05:34:24;101169.25;;;19.29;79.60
77110;BME280;66062;52.464;16.922;2023-06-24T05:36:49;101162.88;;;19.44;78.72
77110;BME280;66062;52.464;16.922;2023-06-24T05:39:15;101165.41;;;19.46;78.42
77110;BME280;66062;52.464;16.922;2023-06-24T05:41:40;101160.03;;;19.60;77.42
77110;BME280;66062;52.464;16.922;2023-06-24T05:44:09;101169.34;;;19.73;77.50
77110;BME280;66062;52.464;16.922;2023-06-24T05:46:37;101167.31;;;20.04;76.17
77110;BME280;66062;52.464;16.922;2023-06-24T05:49:03;101165.16;;;20.14;75.06
77110;BME280;66062;52.464;16.922;2023-06-24T05:51:28;101163.94;;;20.02;74.48
77110;BME280;66062;52.464;16.922;2023-06-24T05:53:54;101167.78;;;19.93;75.38
77110;BME280;66062;52.464;16.922;2023-06-24T05:56:22;101172.16;;;20.08;74.14
77110;BME280;66062;52.464;16.922;2023-06-24T05:58:48;101171.31;;;20.23;73.75
77110;BME280;66062;52.464;16.922;2023-06-24T06:01:14;101168.41;;;20.39;73.73
77110;BME280;66062;52.464;16.922;2023-06-24T06:03:40;101174.94;;;20.44;71.90
77110;BME280;66062;52.464;16.922;2023-06-24T06:06:05;101171.03;;;20.32;72.76
77110;BME280;66062;52.464;16.922;2023-06-24T06:08:32;101184.28;;;20.57;72.24
77110;BME280;66062;52.464;16.922;2023-06-24T06:10:57;101177.97;;;20.35;72.82
77110;BME280;66062;52.464;16.922;2023-06-24T06:13:23;101184.41;;;20.19;72.73
77110;BME280;66062;52.464;16.922;2023-06-24T06:15:48;101172.91;;;20.32;72.01
77110;BME280;66062;52.464;16.922;2023-06-24T06:18:13;101165.41;;;20.48;71.58
77110;BME280;66062;52.464;16.922;2023-06-24T06:20:39;101165.25;;;20.71;71.03
77110;BME280;66062;52.464;16.922;2023-06-24T06:23:05;101164.03;;;20.95;69.53
77110;BME280;66062;52.464;16.922;2023-06-24T06:25:30;101166.81;;;21.02;68.29
77110;BME280;66062;52.464;16.922;2023-06-24T06:27:55;101172.91;;;20.82;69.56
77110;BME280;66062;52.464;16.922;2023-06-24T06:30:21;101174.38;;;21.06;68.81
77110;BME280;66062;52.464;16.922;2023-06-24T06:32:46;101179.66;;;21.36;66.32
77110;BME280;66062;52.464;16.922;2023-06-24T06:35:12;101171.84;;;21.05;67.55
77110;BME280;66062;52.464;16.922;2023-06-24T06:37:37;101173.66;;;20.98;68.39
77110;BME280;66062;52.464;16.922;2023-06-24T06:40:03;101178.75;;;20.86;69.03
77110;BME280;66062;52.464;16.922;2023-06-24T06:42:29;101175.66;;;20.89;68.95
77110;BME280;66062;52.464;16.922;2023-06-24T06:44:55;101171.16;;;20.96;69.03
77110;BME280;66062;52.464;16.922;2023-06-24T06:47:20;101173.66;;;20.76;67.76
77110;BME280;66062;52.464;16.922;2023-06-24T06:49:46;101177.19;;;20.56;70.20
77110;BME280;66062;52.464;16.922;2023-06-24T06:52:11;101171.66;;;20.85;69.66
77110;BME280;66062;52.464;16.922;2023-06-24T06:54:39;101176.50;;;20.89;69.54
77110;BME280;66062;52.464;16.922;2023-06-24T06:57:04;101167.66;;;21.02;68.83
77110;BME280;66062;52.464;16.922;2023-06-24T06:59:31;101171.91;;;21.11;67.42
77110;BME280;66062;52.464;16.922;2023-06-24T07:01:56;101182.91;;;21.24;67.89
77110;BME280;66062;52.464;16.922;2023-06-24T07:04:22;101175.19;;;21.77;66.42
77110;BME280;66062;52.464;16.922;2023-06-24T07:06:47;101171.44;;;21.78;65.53
77110;BME280;66062;52.464;16.922;2023-06-24T07:09:13;101177.72;;;21.85;63.80
77110;BME280;66062;52.464;16.922;2023-06-24T07:11:40;101171.19;;;21.73;64.37
77110;BME280;66062;52.464;16.922;2023-06-24T07:14:05;101169.31;;;22.49;61.97
77110;BME280;66062;52.464;16.922;2023-06-24T07:16:31;101168.22;;;23.37;58.83
77110;BME280;66062;52.464;16.922;2023-06-24T07:18:56;101173.66;;;23.11;59.34
77110;BME280;66062;52.464;16.922;2023-06-24T07:21:22;101172.63;;;23.64;58.28
77110;BME280;66062;52.464;16.922;2023-06-24T07:23:47;101170.16;;;24.78;54.43
77110;BME280;66062;52.464;16.922;2023-06-24T07:26:13;101165.06;;;26.60;48.91
77110;BME280;66062;52.464;16.922;2023-06-24T07:28:41;101161.66;;;26.47;48.83
77110;BME280;66062;52.464;16.922;2023-06-24T07:31:07;101158.81;;;28.69;44.38
77110;BME280;66062;52.464;16.922;2023-06-24T07:33:32;101155.94;;;29.54;40.54
77110;BME280;66062;52.464;16.922;2023-06-24T07:36:00;101170.03;;;28.79;41.89
77110;BME280;66062;52.464;16.922;2023-06-24T07:38:28;101159.88;;;28.40;42.17
77110;BME280;66062;52.464;16.922;2023-06-24T07:40:54;101160.31;;;28.88;42.04
77110;BME280;66062;52.464;16.922;2023-06-24T07:43:19;101159.44;;;29.33;40.52
77110;BME280;66062;52.464;16.922;2023-06-24T07:45:44;101166.78;;;29.44;40.56
77110;BME280;66062;52.464;16.922;2023-06-24T07:48:10;101165.19;;;29.15;40.78
77110;BME280;66062;52.464;16.922;2023-06-24T07:50:35;101167.59;;;27.91;43.38
77110;BME280;66062;52.464;16.922;2023-06-24T07:53:01;101167.38;;;28.44;42.91
77110;BME280;66062;52.464;16.922;2023-06-24T07:55:27;101180.59;;;28.07;43.70
77110;BME280;66062;52.464;16.922;2023-06-24T07:57:53;101164.28;;;27.66;43.87
77110;BME280;66062;52.464;16.922;2023-06-24T08:00:19;101173.91;;;26.92;45.46
77110;BME280;66062;52.464;16.922;2023-06-24T08:02:44;101170.81;;;26.22;47.37
77110;BME280;66062;52.464;16.922;2023-06-24T08:05:09;101174.34;;;25.68;47.12
77110;BME280;66062;52.464;16.922;2023-06-24T08:07:36;101170.91;;;26.64;45.15
77110;BME280;66062;52.464;16.922;2023-06-24T08:10:01;101163.19;;;26.43;46.16
77110;BME280;66062;52.464;16.922;2023-06-24T08:12:27;101175.94;;;25.51;48.52
77110;BME280;66062;52.464;16.922;2023-06-24T08:14:52;101170.50;;;27.08;45.14
77110;BME280;66062;52.464;16.922;2023-06-24T08:17:18;101170.94;;;28.57;40.28
77110;BME280;66062;52.464;16.922;2023-06-24T08:19:43;101169.53;;;28.82;39.86
77110;BME280;66062;52.464;16.922;2023-06-24T08:22:08;101176.09;;;28.13;40.29
77110;BME280;66062;52.464;16.922;2023-06-24T08:24:34;101175.84;;;26.92;43.95
77110;BME280;66062;52.464;16.922;2023-06-24T08:26:59;101183.91;;;25.52;47.03
77110;BME280;66062;52.464;16.922;2023-06-24T08:29:25;101196.44;;;24.73;50.00
77110;BME280;66062;52.464;16.922;2023-06-24T08:31:50;101190.25;;;24.52;50.58
77110;BME280;66062;52.464;16.922;2023-06-24T08:34:16;101173.16;;;25.08;48.91
77110;BME280;66062;52.464;16.922;2023-06-24T08:36:41;101179.47;;;26.86;44.77
77110;BME280;66062;52.464;16.922;2023-06-24T08:39:07;101177.25;;;27.94;41.54
77110;BME280;66062;52.464;16.922;2023-06-24T08:41:33;101186.09;;;26.96;42.21
77110;BME280;66062;52.464;16.922;2023-06-24T08:43:59;101188.56;;;26.68;42.83
77110;BME280;66062;52.464;16.922;2023-06-24T08:46:25;101190.81;;;26.89;41.29
77110;BME280;66062;52.464;16.922;2023-06-24T08:54:26;101173.84;;;28.78;38.12
77110;BME280;66062;52.464;16.922;2023-06-24T08:56:52;101164.44;;;29.69;37.12
77110;BME280;66062;52.464;16.922;2023-06-24T08:59:18;101160.41;;;29.27;37.27
77110;BME280;66062;52.464;16.922;2023-06-24T09:01:49;101157.41;;;29.12;38.08
77110;BME280;66062;52.464;16.922;2023-06-24T09:04:15;101155.78;;;27.44;41.45
77110;BME280;66062;52.464;16.922;2023-06-24T09:06:41;101166.34;;;27.17;41.42
77110;BME280;66062;52.464;16.922;2023-06-24T09:09:17;101160.44;;;28.54;38.42
77110;BME280;66062;52.464;16.922;2023-06-24T09:11:51;101151.13;;;30.00;35.20
77110;BME280;66062;52.464;16.922;2023-06-24T09:14:17;101151.06;;;29.95;34.72
77110;BME280;66062;52.464;16.922;2023-06-24T09:16:54;101156.22;;;30.51;33.86
77110;BME280;66062;52.464;16.922;2023-06-24T09:19:21;101159.66;;;30.20;34.57
77110;BME280;66062;52.464;16.922;2023-06-24T09:21:47;101164.44;;;29.69;36.85
77110;BME280;66062;52.464;16.922;2023-06-24T09:24:12;101157.84;;;29.37;34.33
77110;BME280;66062;52.464;16.922;2023-06-24T09:26:37;101159.00;;;28.51;35.69
77110;BME280;66062;52.464;16.922;2023-06-24T09:29:06;101156.09;;;29.31;35.23
77110;BME280;66062;52.464;16.922;2023-06-24T09:31:33;101165.06;;;28.25;37.97
77110;BME280;66062;52.464;16.922;2023-06-24T09:33:59;101157.47;;;30.22;34.52
77110;BME280;66062;52.464;16.922;2023-06-24T09:36:24;101156.75;;;31.02;31.78
77110;BME280;66062;52.464;16.922;2023-06-24T09:38:50;101148.63;;;32.01;31.14
77110;BME280;66062;52.464;16.922;2023-06-24T09:41:15;101156.13;;;31.27;32.05
77110;BME280;66062;52.464;16.922;2023-06-24T09:43:42;101155.47;;;28.67;36.03
77110;BME280;66062;52.464;16.922;2023-06-24T09:46:09;101169.94;;;27.30;37.73
77110;BME280;66062;52.464;16.922;2023-06-24T09:48:34;101169.75;;;27.89;36.06
77110;BME280;66062;52.464;16.922;2023-06-24T09:51:01;101166.13;;;30.31;31.83
77110;BME280;66062;52.464;16.922;2023-06-24T09:53:34;101164.00;;;30.86;30.07
77110;BME280;66062;52.464;16.922;2023-06-24T09:56:00;101166.53;;;31.52;29.86
77110;BME280;66062;52.464;16.922;2023-06-24T09:58:31;101155.84;;;31.23;30.67
77110;BME280;66062;52.464;16.922;2023-06-24T10:00:57;101163.00;;;30.22;32.30
77110;BME280;66062;52.464;16.922;2023-06-24T10:03:26;101173.34;;;30.58;31.71
77110;BME280;66062;52.464;16.922;2023-06-24T10:05:52;101166.84;;;31.97;29.33
77110;BME280;66062;52.464;16.922;2023-06-24T10:08:18;101158.31;;;32.56;28.35
77110;BME280;66062;52.464;16.922;2023-06-24T10:10:44;101157.56;;;32.86;27.84
77110;BME280;66062;52.464;16.922;2023-06-24T10:13:09;101156.31;;;32.46;28.57
77110;BME280;66062;52.464;16.922;2023-06-24T10:15:35;101159.31;;;31.46;30.09
77110;BME280;66062;52.464;16.922;2023-06-24T10:18:02;101159.72;;;31.27;30.24
77110;BME280;66062;52.464;16.922;2023-06-24T10:20:28;101160.28;;;31.61;29.57
77110;BME280;66062;52.464;16.922;2023-06-24T10:22:54;101157.84;;;33.04;27.81
77110;BME280;66062;52.464;16.922;2023-06-24T10:25:19;101166.28;;;31.21;30.10
77110;BME280;66062;52.464;16.922;2023-06-24T10:27:53;101164.91;;;31.93;30.90
77110;BME280;66062;52.464;16.922;2023-06-24T10:30:19;101167.06;;;30.20;32.05
77110;BME280;66062;52.464;16.922;2023-06-24T10:32:51;101170.78;;;29.53;33.47
77110;BME280;66062;52.464;16.922;2023-06-24T10:35:26;101172.81;;;28.28;35.69
77110;BME280;66062;52.464;16.922;2023-06-24T10:37:59;101154.84;;;29.05;33.86
77110;BME280;66062;52.464;16.922;2023-06-24T10:40:43;101158.81;;;30.90;30.72
77110;BME280;66062;52.464;16.922;2023-06-24T10:45:53;101151.06;;;28.95;32.50
77110;BME280;66062;52.464;16.922;2023-06-24T10:48:19;101156.94;;;30.03;31.54
77110;BME280;66062;52.464;16.922;2023-06-24T10:50:48;101159.88;;;28.40;35.26
77110;BME280;66062;52.464;16.922;2023-06-24T10:53:17;101157.69;;;28.14;35.46
77110;BME280;66062;52.464;16.922;2023-06-24T10:55:46;101153.75;;;29.23;34.43
77110;BME280;66062;52.464;16.922;2023-06-24T10:58:13;101139.28;;;30.21;30.71
77110;BME280;66062;52.464;16.922;2023-06-24T11:00:40;101144.22;;;30.94;28.17
77110;BME280;66062;52.464;16.922;2023-06-24T11:03:15;101139.44;;;31.85;28.21
77110;BME280;66062;52.464;16.922;2023-06-24T11:05:43;101137.09;;;32.09;28.58
77110;BME280;66062;52.464;16.922;2023-06-24T11:08:09;101134.03;;;32.73;28.72
77110;BME280;66062;52.464;16.922;2023-06-24T11:10:47;101136.91;;;32.31;27.61
77110;BME280;66062;52.464;16.922;2023-06-24T11:13:14;101132.34;;;30.40;31.79
77110;BME280;66062;52.464;16.922;2023-06-24T11:15:40;101138.53;;;30.47;31.10
77110;BME280;66062;52.464;16.922;2023-06-24T11:18:09;101133.88;;;31.38;27.89
77110;BME280;66062;52.464;16.922;2023-06-24T11:20:38;101134.09;;;31.32;27.18
77110;BME280;66062;52.464;16.922;2023-06-24T11:23:10;101126.84;;;31.21;28.07
77110;BME280;66062;52.464;16.922;2023-06-24T11:25:40;101124.25;;;31.09;29.01
77110;BME280;66062;52.464;16.922;2023-06-24T11:28:13;101127.50;;;30.47;30.03
77110;BME280;66062;52.464;16.922;2023-06-24T11:30:38;101122.69;;;31.18;29.57
77110;BME280;66062;52.464;16.922;2023-06-24T11:33:03;101122.94;;;32.01;28.29
77110;BME280;66062;52.464;16.922;2023-06-24T11:35:29;101121.88;;;32.07;27.24
77110;BME280;66062;52.464;16.922;2023-06-24T11:37:57;101126.13;;;31.35;28.69
77110;BME280;66062;52.464;16.922;2023-06-24T11:40:26;101120.75;;;31.56;28.09
77110;BME280;66062;52.464;16.922;2023-06-24T11:43:01;101126.88;;;30.67;29.26
77110;BME280;66062;52.464;16.922;2023-06-24T11:45:27;101120.28;;;31.64;28.95
77110;BME280;66062;52.464;16.922;2023-06-24T11:47:52;101117.09;;;31.87;28.03
77110;BME280;66062;52.464;16.922;2023-06-24T11:50:25;101119.47;;;32.20;26.57
77110;BME280;66062;52.464;16.922;2023-06-24T11:52:51;101116.16;;;32.18;25.69
77110;BME280;66062;52.464;16.922;2023-06-24T11:55:21;101117.56;;;32.26;26.42
77110;BME280;66062;52.464;16.922;2023-06-24T11:58:00;101114.09;;;30.83;28.68
77110;BME280;66062;52.464;16.922;2023-06-24T12:00:40;101120.09;;;29.49;30.74
77110;BME280;66062;52.464;16.922;2023-06-24T12:03:08;101107.03;;;30.43;30.31
77110;BME280;66062;52.464;16.922;2023-06-24T12:05:38;101112.19;;;30.13;30.92
77110;BME280;66062;52.464;16.922;2023-06-24T12:08:11;101105.03;;;29.73;31.47
77110;BME280;66062;52.464;16.922;2023-06-24T12:10:37;101109.66;;;30.33;30.65
77110;BME280;66062;52.464;16.922;2023-06-24T12:13:04;101099.81;;;30.37;29.80
77110;BME280;66062;52.464;16.922;2023-06-24T12:15:31;101102.91;;;31.68;29.17
77110;BME280;66062;52.464;16.922;2023-06-24T12:17:57;101109.84;;;31.34;28.68
77110;BME280;66062;52.464;16.922;2023-06-24T12:20:24;101120.41;;;29.53;31.49
77110;BME280;66062;52.464;16.922;2023-06-24T12:22:50;101112.59;;;28.95;32.89
77110;BME280;66062;52.464;16.922;2023-06-24T12:25:17;101100.66;;;30.16;30.51
77110;BME280;66062;52.464;16.922;2023-06-24T12:27:43;101104.25;;;30.92;28.97
77110;BME280;66062;52.464;16.922;2023-06-24T12:30:10;101099.09;;;30.74;29.12
77110;BME280;66062;52.464;16.922;2023-06-24T12:32:36;101100.31;;;30.12;29.90
77110;BME280;66062;52.464;16.922;2023-06-24T12:35:02;101095.69;;;29.91;29.35
77110;BME280;66062;52.464;16.922;2023-06-24T12:37:32;101106.81;;;30.01;30.09
77110;BME280;66062;52.464;16.922;2023-06-24T12:39:58;101099.69;;;30.49;30.09
77110;BME280;66062;52.464;16.922;2023-06-24T12:42:24;101106.03;;;31.03;29.34
77110;BME280;66062;52.464;16.922;2023-06-24T12:44:50;101109.91;;;30.53;29.98
77110;BME280;66062;52.464;16.922;2023-06-24T12:47:15;101098.81;;;31.34;28.25
77110;BME280;66062;52.464;16.922;2023-06-24T12:49:41;101097.94;;;31.28;27.78
77110;BME280;66062;52.464;16.922;2023-06-24T12:52:06;101103.94;;;30.62;28.90
77110;BME280;66062;52.464;16.922;2023-06-24T12:54:32;101112.78;;;30.15;29.49
77110;BME280;66062;52.464;16.922;2023-06-24T12:56:57;101117.25;;;29.83;29.57